Enter the Airport ICAO Code

Search by Airport or City

Current Weather

LELC | Murcia–San Javier Airport

Murcia, Region of Murcia, Spain

Last Update 25 Minutes Ago

Sky with Few Clouds

Temperature of 32 ºC

Moderate Winds from South

Temperature

32 ºC

Dew Point Temperature

20 ºC

Relative Humidity

49.34 %

Wind Direction

South (190º, Ranging from 150º to 250º)

Wind Velocity

22 km/h (12 kt)

Gusts

None

Visibility

Greater than 10 Kilometers

Sea Level Pressure

1012 hPa (Hectopascals)

Layers of Clouds

5% to 30% of Sky Covered from 762 mts (2500 ft) Above Ground Level.

METAR LELC 121430Z 19012KT 150V250 9999 FEW025 32/20 Q1012 NOSIG

Weather Forecast

LELC | Murcia–San Javier Airport

Murcia, Region of Murcia, Spain

Forecast valid for the next 21 Hours

From now on it is expected:

Partly Cloudy Sky

Moderate Winds from South

In 4 to 7 hours it is expected the begining of:

Light Winds from Variable Directions

Maximum Temperature

30 ºC in -1 Hours

Minimum Temperature

21 ºC in 14 Hours

TAF LELC 121100Z 1212/1312 19012KT 9999 SCT020 TX30/1214Z TN21/1305Z BECMG 1219/1222 VRB02KT